sensor_id;sensor_type;location;lat;lon;timestamp;P1;durP1;ratioP1;P2;durP2;ratioP2
59880;SDS011;45751;51.380;10.326;2023-12-07T00:01:03;11.80;;;5.30;;
59880;SDS011;45751;51.380;10.326;2023-12-07T00:03:29;13.32;;;5.00;;
59880;SDS011;45751;51.380;10.326;2023-12-07T00:05:55;13.18;;;5.57;;
59880;SDS011;45751;51.380;10.326;2023-12-07T00:08:21;14.80;;;6.03;;
59880;SDS011;45751;51.380;10.326;2023-12-07T00:10:46;9.25;;;3.92;;
59880;SDS011;45751;51.380;10.326;2023-12-07T00:13:12;12.82;;;6.55;;
59880;SDS011;45751;51.380;10.326;2023-12-07T00:15:38;12.30;;;5.30;;
59880;SDS011;45751;51.380;10.326;2023-12-07T00:18:04;12.32;;;5.32;;
59880;SDS011;45751;51.380;10.326;2023-12-07T00:20:30;12.90;;;6.07;;
59880;SDS011;45751;51.380;10.326;2023-12-07T00:22:55;11.07;;;5.38;;
59880;SDS011;45751;51.380;10.326;2023-12-07T00:25:21;10.00;;;5.20;;
59880;SDS011;45751;51.380;10.326;2023-12-07T00:27:47;16.85;;;4.82;;
59880;SDS011;45751;51.380;10.326;2023-12-07T00:30:13;18.25;;;7.30;;
59880;SDS011;45751;51.380;10.326;2023-12-07T00:32:40;8.23;;;4.38;;
59880;SDS011;45751;51.380;10.326;2023-12-07T00:35:08;11.85;;;5.22;;
59880;SDS011;45751;51.380;10.326;2023-12-07T00:37:35;11.88;;;3.92;;
59880;SDS011;45751;51.380;10.326;2023-12-07T00:40:01;12.05;;;5.05;;
59880;SDS011;45751;51.380;10.326;2023-12-07T00:42:27;13.32;;;5.72;;
59880;SDS011;45751;51.380;10.326;2023-12-07T00:44:53;12.00;;;4.75;;
59880;SDS011;45751;51.380;10.326;2023-12-07T00:47:19;9.07;;;3.95;;
59880;SDS011;45751;51.380;10.326;2023-12-07T00:49:45;12.50;;;5.03;;
59880;SDS011;45751;51.380;10.326;2023-12-07T00:52:10;14.40;;;5.43;;
59880;SDS011;45751;51.380;10.326;2023-12-07T00:54:36;12.02;;;4.85;;
59880;SDS011;45751;51.380;10.326;2023-12-07T00:57:02;10.00;;;4.22;;
59880;SDS011;45751;51.380;10.326;2023-12-07T00:59:27;13.45;;;5.00;;
59880;SDS011;45751;51.380;10.326;2023-12-07T01:02:00;11.30;;;5.93;;
59880;SDS011;45751;51.380;10.326;2023-12-07T01:04:27;11.15;;;5.55;;
59880;SDS011;45751;51.380;10.326;2023-12-07T01:06:53;11.00;;;5.13;;
59880;SDS011;45751;51.380;10.326;2023-12-07T01:09:19;9.73;;;4.13;;
59880;SDS011;45751;51.380;10.326;2023-12-07T01:11:45;13.07;;;5.18;;
59880;SDS011;45751;51.380;10.326;2023-12-07T01:14:10;12.77;;;4.88;;
59880;SDS011;45751;51.380;10.326;2023-12-07T01:16:36;11.75;;;6.32;;
59880;SDS011;45751;51.380;10.326;2023-12-07T01:19:02;14.35;;;7.30;;
59880;SDS011;45751;51.380;10.326;2023-12-07T01:21:28;14.43;;;5.43;;
59880;SDS011;45751;51.380;10.326;2023-12-07T01:23:54;14.85;;;5.40;;
59880;SDS011;45751;51.380;10.326;2023-12-07T01:26:20;11.50;;;5.53;;
59880;SDS011;45751;51.380;10.326;2023-12-07T01:28:46;15.50;;;7.30;;
59880;SDS011;45751;51.380;10.326;2023-12-07T01:31:11;12.75;;;5.65;;
59880;SDS011;45751;51.380;10.326;2023-12-07T01:33:37;16.65;;;5.90;;
59880;SDS011;45751;51.380;10.326;2023-12-07T01:36:03;11.85;;;5.63;;
59880;SDS011;45751;51.380;10.326;2023-12-07T01:38:29;12.57;;;5.38;;
59880;SDS011;45751;51.380;10.326;2023-12-07T01:40:54;13.57;;;6.03;;
59880;SDS011;45751;51.380;10.326;2023-12-07T01:43:21;12.10;;;5.53;;
59880;SDS011;45751;51.380;10.326;2023-12-07T01:45:48;13.52;;;5.78;;
59880;SDS011;45751;51.380;10.326;2023-12-07T01:48:16;11.45;;;4.75;;
59880;SDS011;45751;51.380;10.326;2023-12-07T01:50:42;11.02;;;5.63;;
59880;SDS011;45751;51.380;10.326;2023-12-07T01:53:07;15.10;;;6.05;;
59880;SDS011;45751;51.380;10.326;2023-12-07T01:55:34;9.95;;;4.75;;
59880;SDS011;45751;51.380;10.326;2023-12-07T01:58:01;12.15;;;6.75;;
59880;SDS011;45751;51.380;10.326;2023-12-07T02:00:27;13.57;;;7.05;;
59880;SDS011;45751;51.380;10.326;2023-12-07T02:02:53;14.20;;;6.20;;
59880;SDS011;45751;51.380;10.326;2023-12-07T02:05:20;10.63;;;5.18;;
59880;SDS011;45751;51.380;10.326;2023-12-07T02:07:46;14.48;;;6.47;;
59880;SDS011;45751;51.380;10.326;2023-12-07T02:10:12;16.05;;;5.35;;
59880;SDS011;45751;51.380;10.326;2023-12-07T02:12:38;18.88;;;7.45;;
59880;SDS011;45751;51.380;10.326;2023-12-07T02:15:05;13.80;;;6.50;;
59880;SDS011;45751;51.380;10.326;2023-12-07T02:17:40;14.73;;;6.97;;
59880;SDS011;45751;51.380;10.326;2023-12-07T02:20:26;12.00;;;4.60;;
59880;SDS011;45751;51.380;10.326;2023-12-07T02:22:56;15.95;;;6.22;;
59880;SDS011;45751;51.380;10.326;2023-12-07T02:25:29;11.68;;;5.47;;
59880;SDS011;45751;51.380;10.326;2023-12-07T02:28:17;15.93;;;6.93;;
59880;SDS011;45751;51.380;10.326;2023-12-07T02:30:43;13.75;;;6.72;;
59880;SDS011;45751;51.380;10.326;2023-12-07T02:33:09;14.98;;;6.78;;
59880;SDS011;45751;51.380;10.326;2023-12-07T02:35:36;13.98;;;6.70;;
59880;SDS011;45751;51.380;10.326;2023-12-07T02:38:03;13.88;;;6.28;;
59880;SDS011;45751;51.380;10.326;2023-12-07T02:40:30;13.65;;;6.07;;
59880;SDS011;45751;51.380;10.326;2023-12-07T02:42:57;12.70;;;5.78;;
59880;SDS011;45751;51.380;10.326;2023-12-07T02:45:24;23.60;;;7.63;;
59880;SDS011;45751;51.380;10.326;2023-12-07T02:47:51;16.70;;;6.45;;
59880;SDS011;45751;51.380;10.326;2023-12-07T02:50:17;14.75;;;6.32;;
59880;SDS011;45751;51.380;10.326;2023-12-07T02:52:43;12.52;;;6.00;;
59880;SDS011;45751;51.380;10.326;2023-12-07T02:55:09;14.05;;;5.97;;
59880;SDS011;45751;51.380;10.326;2023-12-07T02:57:35;14.45;;;6.10;;
59880;SDS011;45751;51.380;10.326;2023-12-07T03:00:02;12.75;;;5.95;;
59880;SDS011;45751;51.380;10.326;2023-12-07T03:02:38;14.20;;;5.63;;
59880;SDS011;45751;51.380;10.326;2023-12-07T03:05:05;11.68;;;6.47;;
59880;SDS011;45751;51.380;10.326;2023-12-07T03:07:32;11.23;;;5.10;;
59880;SDS011;45751;51.380;10.326;2023-12-07T03:09:58;13.68;;;6.13;;
59880;SDS011;45751;51.380;10.326;2023-12-07T03:12:23;13.43;;;5.72;;
59880;SDS011;45751;51.380;10.326;2023-12-07T03:14:49;17.75;;;6.30;;
59880;SDS011;45751;51.380;10.326;2023-12-07T03:17:15;15.65;;;7.93;;
59880;SDS011;45751;51.380;10.326;2023-12-07T03:19:41;9.57;;;5.05;;
59880;SDS011;45751;51.380;10.326;2023-12-07T03:22:07;13.02;;;6.28;;
59880;SDS011;45751;51.380;10.326;2023-12-07T03:24:34;12.02;;;6.53;;
59880;SDS011;45751;51.380;10.326;2023-12-07T03:27:01;18.17;;;7.65;;
59880;SDS011;45751;51.380;10.326;2023-12-07T03:29:27;14.07;;;7.95;;
59880;SDS011;45751;51.380;10.326;2023-12-07T03:31:53;11.48;;;5.38;;
59880;SDS011;45751;51.380;10.326;2023-12-07T03:34:18;13.95;;;7.10;;
59880;SDS011;45751;51.380;10.326;2023-12-07T03:36:47;18.60;;;6.95;;
59880;SDS011;45751;51.380;10.326;2023-12-07T03:39:14;15.25;;;6.93;;
59880;SDS011;45751;51.380;10.326;2023-12-07T03:41:40;16.50;;;6.60;;
59880;SDS011;45751;51.380;10.326;2023-12-07T03:44:06;22.10;;;6.43;;
59880;SDS011;45751;51.380;10.326;2023-12-07T03:46:32;14.35;;;6.60;;
59880;SDS011;45751;51.380;10.326;2023-12-07T03:48:58;18.90;;;6.82;;
59880;SDS011;45751;51.380;10.326;2023-12-07T03:51:26;15.30;;;6.22;;
59880;SDS011;45751;51.380;10.326;2023-12-07T03:53:52;15.23;;;7.25;;
59880;SDS011;45751;51.380;10.326;2023-12-07T03:58:50;14.88;;;5.97;;
59880;SDS011;45751;51.380;10.326;2023-12-07T04:01:16;11.25;;;4.80;;
59880;SDS011;45751;51.380;10.326;2023-12-07T04:03:41;15.00;;;7.63;;
59880;SDS011;45751;51.380;10.326;2023-12-07T04:06:07;12.90;;;5.95;;
59880;SDS011;45751;51.380;10.326;2023-12-07T04:08:34;16.98;;;6.90;;
59880;SDS011;45751;51.380;10.326;2023-12-07T04:11:00;17.52;;;6.60;;
59880;SDS011;45751;51.380;10.326;2023-12-07T04:13:25;12.55;;;6.15;;
59880;SDS011;45751;51.380;10.326;2023-12-07T04:15:51;11.75;;;6.35;;
59880;SDS011;45751;51.380;10.326;2023-12-07T04:18:17;12.50;;;6.28;;
59880;SDS011;45751;51.380;10.326;2023-12-07T04:20:43;11.32;;;5.40;;
59880;SDS011;45751;51.380;10.326;2023-12-07T04:23:08;13.45;;;5.85;;
59880;SDS011;45751;51.380;10.326;2023-12-07T04:25:34;22.63;;;5.13;;
59880;SDS011;45751;51.380;10.326;2023-12-07T04:28:00;15.43;;;8.02;;
59880;SDS011;45751;51.380;10.326;2023-12-07T04:30:25;9.93;;;5.50;;
59880;SDS011;45751;51.380;10.326;2023-12-07T04:32:51;15.57;;;6.47;;
59880;SDS011;45751;51.380;10.326;2023-12-07T04:35:17;11.88;;;6.20;;
59880;SDS011;45751;51.380;10.326;2023-12-07T04:37:43;13.60;;;7.22;;
59880;SDS011;45751;51.380;10.326;2023-12-07T04:40:09;14.25;;;5.72;;
59880;SDS011;45751;51.380;10.326;2023-12-07T04:42:35;16.08;;;6.35;;
59880;SDS011;45751;51.380;10.326;2023-12-07T04:45:01;15.73;;;6.20;;
59880;SDS011;45751;51.380;10.326;2023-12-07T04:47:27;13.90;;;6.60;;
59880;SDS011;45751;51.380;10.326;2023-12-07T04:49:53;17.60;;;8.18;;
59880;SDS011;45751;51.380;10.326;2023-12-07T04:52:19;18.55;;;8.27;;
59880;SDS011;45751;51.380;10.326;2023-12-07T04:54:44;12.82;;;6.70;;
59880;SDS011;45751;51.380;10.326;2023-12-07T04:57:10;10.50;;;6.43;;
59880;SDS011;45751;51.380;10.326;2023-12-07T04:59:36;13.95;;;5.82;;
59880;SDS011;45751;51.380;10.326;2023-12-07T05:02:02;15.10;;;7.30;;
59880;SDS011;45751;51.380;10.326;2023-12-07T05:04:27;15.00;;;6.47;;
59880;SDS011;45751;51.380;10.326;2023-12-07T05:06:53;13.30;;;7.00;;
59880;SDS011;45751;51.380;10.326;2023-12-07T05:09:19;17.42;;;6.55;;
59880;SDS011;45751;51.380;10.326;2023-12-07T05:11:44;12.55;;;4.75;;
59880;SDS011;45751;51.380;10.326;2023-12-07T05:14:10;15.85;;;6.72;;
59880;SDS011;45751;51.380;10.326;2023-12-07T05:16:36;15.93;;;7.38;;
59880;SDS011;45751;51.380;10.326;2023-12-07T05:19:02;14.18;;;7.18;;
59880;SDS011;45751;51.380;10.326;2023-12-07T05:21:28;18.45;;;8.48;;
59880;SDS011;45751;51.380;10.326;2023-12-07T05:23:53;14.32;;;6.65;;
59880;SDS011;45751;51.380;10.326;2023-12-07T05:26:19;14.77;;;5.60;;
59880;SDS011;45751;51.380;10.326;2023-12-07T05:28:46;16.63;;;6.68;;
59880;SDS011;45751;51.380;10.326;2023-12-07T05:31:15;16.42;;;7.50;;
59880;SDS011;45751;51.380;10.326;2023-12-07T05:33:42;14.45;;;6.45;;
59880;SDS011;45751;51.380;10.326;2023-12-07T05:36:08;17.13;;;7.00;;
59880;SDS011;45751;51.380;10.326;2023-12-07T05:38:34;13.15;;;5.65;;
59880;SDS011;45751;51.380;10.326;2023-12-07T05:40:59;13.95;;;5.97;;
59880;SDS011;45751;51.380;10.326;2023-12-07T05:43:25;15.13;;;6.20;;
59880;SDS011;45751;51.380;10.326;2023-12-07T05:45:51;11.90;;;5.43;;
59880;SDS011;45751;51.380;10.326;2023-12-07T05:48:16;12.48;;;6.82;;
59880;SDS011;45751;51.380;10.326;2023-12-07T05:50:42;16.88;;;7.43;;
59880;SDS011;45751;51.380;10.326;2023-12-07T05:53:08;13.73;;;6.40;;
59880;SDS011;45751;51.380;10.326;2023-12-07T05:55:34;11.68;;;6.82;;
59880;SDS011;45751;51.380;10.326;2023-12-07T05:57:59;14.65;;;6.68;;
59880;SDS011;45751;51.380;10.326;2023-12-07T06:00:25;20.90;;;6.60;;
59880;SDS011;45751;51.380;10.326;2023-12-07T06:02:51;14.70;;;6.68;;
59880;SDS011;45751;51.380;10.326;2023-12-07T06:05:17;13.02;;;6.50;;
59880;SDS011;45751;51.380;10.326;2023-12-07T06:07:42;15.85;;;5.65;;
59880;SDS011;45751;51.380;10.326;2023-12-07T06:10:08;12.35;;;6.68;;
59880;SDS011;45751;51.380;10.326;2023-12-07T06:12:34;13.23;;;6.68;;
59880;SDS011;45751;51.380;10.326;2023-12-07T06:15:00;12.98;;;6.93;;
59880;SDS011;45751;51.380;10.326;2023-12-07T06:17:26;15.55;;;6.10;;
59880;SDS011;45751;51.380;10.326;2023-12-07T06:19:52;15.13;;;5.57;;
59880;SDS011;45751;51.380;10.326;2023-12-07T06:22:17;15.73;;;6.15;;
59880;SDS011;45751;51.380;10.326;2023-12-07T06:24:43;17.02;;;8.15;;
59880;SDS011;45751;51.380;10.326;2023-12-07T06:27:09;16.50;;;9.50;;
59880;SDS011;45751;51.380;10.326;2023-12-07T06:29:35;13.07;;;6.88;;
59880;SDS011;45751;51.380;10.326;2023-12-07T06:32:01;16.58;;;5.75;;
59880;SDS011;45751;51.380;10.326;2023-12-07T06:34:27;15.82;;;7.80;;
59880;SDS011;45751;51.380;10.326;2023-12-07T06:36:56;17.13;;;7.75;;
59880;SDS011;45751;51.380;10.326;2023-12-07T06:39:21;16.05;;;7.45;;
59880;SDS011;45751;51.380;10.326;2023-12-07T06:41:47;15.50;;;7.00;;
59880;SDS011;45751;51.380;10.326;2023-12-07T06:44:13;13.68;;;5.93;;
59880;SDS011;45751;51.380;10.326;2023-12-07T06:46:39;12.82;;;5.55;;
59880;SDS011;45751;51.380;10.326;2023-12-07T06:49:05;17.90;;;5.82;;
59880;SDS011;45751;51.380;10.326;2023-12-07T06:51:31;14.25;;;6.10;;
59880;SDS011;45751;51.380;10.326;2023-12-07T06:53:57;13.65;;;6.88;;
59880;SDS011;45751;51.380;10.326;2023-12-07T06:56:22;20.02;;;7.30;;
59880;SDS011;45751;51.380;10.326;2023-12-07T06:58:48;14.85;;;5.93;;
59880;SDS011;45751;51.380;10.326;2023-12-07T07:01:14;13.10;;;5.22;;
59880;SDS011;45751;51.380;10.326;2023-12-07T07:03:40;13.40;;;7.35;;
59880;SDS011;45751;51.380;10.326;2023-12-07T07:06:05;20.25;;;5.85;;
59880;SDS011;45751;51.380;10.326;2023-12-07T07:08:31;12.88;;;6.18;;
59880;SDS011;45751;51.380;10.326;2023-12-07T07:10:57;12.50;;;5.55;;
59880;SDS011;45751;51.380;10.326;2023-12-07T07:13:22;12.90;;;5.45;;
59880;SDS011;45751;51.380;10.326;2023-12-07T07:15:48;12.98;;;4.97;;
59880;SDS011;45751;51.380;10.326;2023-12-07T07:18:14;13.07;;;5.95;;
59880;SDS011;45751;51.380;10.326;2023-12-07T07:20:40;12.50;;;6.43;;
59880;SDS011;45751;51.380;10.326;2023-12-07T07:23:05;13.63;;;6.88;;
59880;SDS011;45751;51.380;10.326;2023-12-07T07:25:33;14.20;;;5.25;;
59880;SDS011;45751;51.380;10.326;2023-12-07T07:27:59;14.02;;;6.00;;
59880;SDS011;45751;51.380;10.326;2023-12-07T07:30:25;13.50;;;6.47;;
59880;SDS011;45751;51.380;10.326;2023-12-07T07:32:51;15.07;;;7.70;;
59880;SDS011;45751;51.380;10.326;2023-12-07T07:35:17;18.38;;;8.35;;
59880;SDS011;45751;51.380;10.326;2023-12-07T07:37:43;17.65;;;7.43;;
59880;SDS011;45751;51.380;10.326;2023-12-07T07:40:09;12.90;;;6.50;;
59880;SDS011;45751;51.380;10.326;2023-12-07T07:42:39;14.27;;;6.32;;
59880;SDS011;45751;51.380;10.326;2023-12-07T07:45:05;16.50;;;7.10;;
59880;SDS011;45751;51.380;10.326;2023-12-07T07:47:32;13.73;;;5.25;;
59880;SDS011;45751;51.380;10.326;2023-12-07T07:49:58;13.90;;;5.65;;
59880;SDS011;45751;51.380;10.326;2023-12-07T07:52:24;15.05;;;5.65;;
59880;SDS011;45751;51.380;10.326;2023-12-07T07:54:49;18.55;;;7.25;;
59880;SDS011;45751;51.380;10.326;2023-12-07T07:57:15;16.00;;;7.90;;
59880;SDS011;45751;51.380;10.326;2023-12-07T07:59:41;12.43;;;7.35;;
59880;SDS011;45751;51.380;10.326;2023-12-07T08:02:07;12.75;;;6.03;;
59880;SDS011;45751;51.380;10.326;2023-12-07T08:04:32;13.70;;;6.35;;
59880;SDS011;45751;51.380;10.326;2023-12-07T08:06:58;13.45;;;6.18;;
59880;SDS011;45751;51.380;10.326;2023-12-07T08:09:24;12.13;;;5.60;;
59880;SDS011;45751;51.380;10.326;2023-12-07T08:11:51;11.95;;;5.82;;
59880;SDS011;45751;51.380;10.326;2023-12-07T08:14:16;19.67;;;6.20;;
59880;SDS011;45751;51.380;10.326;2023-12-07T08:16:44;15.10;;;5.45;;
59880;SDS011;45751;51.380;10.326;2023-12-07T08:19:09;15.90;;;7.18;;
59880;SDS011;45751;51.380;10.326;2023-12-07T08:21:35;15.32;;;5.93;;
59880;SDS011;45751;51.380;10.326;2023-12-07T08:24:01;20.55;;;6.63;;
59880;SDS011;45751;51.380;10.326;2023-12-07T08:26:27;26.60;;;10.23;;
59880;SDS011;45751;51.380;10.326;2023-12-07T08:28:53;15.68;;;6.57;;
59880;SDS011;45751;51.380;10.326;2023-12-07T08:31:19;14.27;;;5.05;;
59880;SDS011;45751;51.380;10.326;2023-12-07T08:33:45;9.82;;;4.40;;
59880;SDS011;45751;51.380;10.326;2023-12-07T08:36:11;13.48;;;5.10;;
59880;SDS011;45751;51.380;10.326;2023-12-07T08:38:36;13.52;;;6.25;;
59880;SDS011;45751;51.380;10.326;2023-12-07T08:41:02;12.00;;;5.88;;
59880;SDS011;45751;51.380;10.326;2023-12-07T08:43:28;20.05;;;4.68;;
59880;SDS011;45751;51.380;10.326;2023-12-07T08:45:55;16.88;;;6.15;;
59880;SDS011;45751;51.380;10.326;2023-12-07T08:48:21;14.90;;;6.13;;
59880;SDS011;45751;51.380;10.326;2023-12-07T08:50:47;16.02;;;4.90;;
59880;SDS011;45751;51.380;10.326;2023-12-07T08:53:12;14.57;;;6.95;;
59880;SDS011;45751;51.380;10.326;2023-12-07T08:55:38;19.58;;;8.95;;
59880;SDS011;45751;51.380;10.326;2023-12-07T08:58:05;33.58;;;13.55;;
59880;SDS011;45751;51.380;10.326;2023-12-07T09:00:31;28.02;;;12.18;;
59880;SDS011;45751;51.380;10.326;2023-12-07T09:02:57;15.40;;;6.85;;
59880;SDS011;45751;51.380;10.326;2023-12-07T09:05:23;13.85;;;6.57;;
59880;SDS011;45751;51.380;10.326;2023-12-07T09:07:50;13.18;;;4.50;;
59880;SDS011;45751;51.380;10.326;2023-12-07T09:10:18;10.75;;;5.18;;
59880;SDS011;45751;51.380;10.326;2023-12-07T09:12:44;12.25;;;4.80;;
59880;SDS011;45751;51.380;10.326;2023-12-07T09:15:10;10.07;;;3.95;;
59880;SDS011;45751;51.380;10.326;2023-12-07T09:17:36;19.55;;;10.32;;
59880;SDS011;45751;51.380;10.326;2023-12-07T09:20:11;21.38;;;7.38;;
59880;SDS011;45751;51.380;10.326;2023-12-07T09:22:43;12.82;;;4.53;;
59880;SDS011;45751;51.380;10.326;2023-12-07T09:25:10;10.82;;;4.03;;
59880;SDS011;45751;51.380;10.326;2023-12-07T09:27:37;9.52;;;4.57;;
59880;SDS011;45751;51.380;10.326;2023-12-07T09:30:06;11.18;;;4.43;;
59880;SDS011;45751;51.380;10.326;2023-12-07T09:32:42;8.93;;;3.55;;
59880;SDS011;45751;51.380;10.326;2023-12-07T09:35:08;8.40;;;2.65;;
59880;SDS011;45751;51.380;10.326;2023-12-07T09:37:44;7.03;;;2.58;;
59880;SDS011;45751;51.380;10.326;2023-12-07T09:40:16;8.68;;;3.83;;
59880;SDS011;45751;51.380;10.326;2023-12-07T09:42:43;9.60;;;3.72;;
59880;SDS011;45751;51.380;10.326;2023-12-07T09:45:09;11.13;;;3.78;;
59880;SDS011;45751;51.380;10.326;2023-12-07T09:47:36;11.77;;;4.72;;
59880;SDS011;45751;51.380;10.326;2023-12-07T09:50:07;12.27;;;5.50;;
59880;SDS011;45751;51.380;10.326;2023-12-07T09:52:34;9.60;;;3.92;;
59880;SDS011;45751;51.380;10.326;2023-12-07T09:55:02;9.02;;;4.13;;
59880;SDS011;45751;51.380;10.326;2023-12-07T09:57:28;8.90;;;3.38;;
59880;SDS011;45751;51.380;10.326;2023-12-07T09:59:55;12.73;;;4.70;;
59880;SDS011;45751;51.380;10.326;2023-12-07T10:02:21;11.60;;;3.97;;
59880;SDS011;45751;51.380;10.326;2023-12-07T10:04:47;12.02;;;4.25;;
59880;SDS011;45751;51.380;10.326;2023-12-07T10:07:14;10.18;;;3.97;;
59880;SDS011;45751;51.380;10.326;2023-12-07T10:09:40;7.00;;;3.13;;
59880;SDS011;45751;51.380;10.326;2023-12-07T10:12:06;8.65;;;3.88;;
59880;SDS011;45751;51.380;10.326;2023-12-07T10:14:32;11.70;;;4.05;;
59880;SDS011;45751;51.380;10.326;2023-12-07T10:16:59;7.57;;;3.35;;
59880;SDS011;45751;51.380;10.326;2023-12-07T10:19:25;9.90;;;3.33;;
59880;SDS011;45751;51.380;10.326;2023-12-07T10:21:52;10.70;;;4.72;;
59880;SDS011;45751;51.380;10.326;2023-12-07T10:24:19;8.27;;;2.85;;
59880;SDS011;45751;51.380;10.326;2023-12-07T10:26:47;7.28;;;2.80;;
59880;SDS011;45751;51.380;10.326;2023-12-07T10:29:14;6.47;;;2.40;;
59880;SDS011;45751;51.380;10.326;2023-12-07T10:31:41;8.90;;;3.42;;
59880;SDS011;45751;51.380;10.326;2023-12-07T10:34:09;8.15;;;3.03;;
59880;SDS011;45751;51.380;10.326;2023-12-07T10:36:34;7.93;;;2.85;;
59880;SDS011;45751;51.380;10.326;2023-12-07T10:39:00;9.98;;;3.15;;
59880;SDS011;45751;51.380;10.326;2023-12-07T10:41:27;7.43;;;3.10;;
59880;SDS011;45751;51.380;10.326;2023-12-07T10:43:54;6.57;;;2.40;;
59880;SDS011;45751;51.380;10.326;2023-12-07T10:46:24;6.15;;;2.38;;
59880;SDS011;45751;51.380;10.326;2023-12-07T10:48:54;8.68;;;3.30;;
59880;SDS011;45751;51.380;10.326;2023-12-07T10:54:13;9.98;;;3.58;;
59880;SDS011;45751;51.380;10.326;2023-12-07T10:56:43;6.93;;;2.20;;
59880;SDS011;45751;51.380;10.326;2023-12-07T10:59:09;7.15;;;2.22;;
59880;SDS011;45751;51.380;10.326;2023-12-07T11:01:39;4.75;;;1.63;;
59880;SDS011;45751;51.380;10.326;2023-12-07T11:04:05;9.93;;;3.00;;
59880;SDS011;45751;51.380;10.326;2023-12-07T11:06:34;9.15;;;3.20;;
59880;SDS011;45751;51.380;10.326;2023-12-07T11:09:05;7.10;;;2.17;;
59880;SDS011;45751;51.380;10.326;2023-12-07T11:11:47;10.00;;;4.38;;
59880;SDS011;45751;51.380;10.326;2023-12-07T11:14:17;7.78;;;3.15;;
59880;SDS011;45751;51.380;10.326;2023-12-07T11:16:45;9.45;;;3.70;;
59880;SDS011;45751;51.380;10.326;2023-12-07T11:22:16;6.28;;;2.70;;
59880;SDS011;45751;51.380;10.326;2023-12-07T11:24:52;6.65;;;2.90;;
59880;SDS011;45751;51.380;10.326;2023-12-07T11:27:19;10.20;;;4.43;;
59880;SDS011;45751;51.380;10.326;2023-12-07T11:29:46;8.80;;;3.80;;
59880;SDS011;45751;51.380;10.326;2023-12-07T11:32:13;9.77;;;4.07;;
59880;SDS011;45751;51.380;10.326;2023-12-07T11:34:40;7.80;;;3.38;;
59880;SDS011;45751;51.380;10.326;2023-12-07T11:37:07;10.93;;;5.13;;
59880;SDS011;45751;51.380;10.326;2023-12-07T11:39:40;8.15;;;4.50;;
59880;SDS011;45751;51.380;10.326;2023-12-07T11:42:16;9.20;;;3.47;;
59880;SDS011;45751;51.380;10.326;2023-12-07T11:44:48;8.60;;;4.32;;
59880;SDS011;45751;51.380;10.326;2023-12-07T11:47:15;10.32;;;4.35;;
59880;SDS011;45751;51.380;10.326;2023-12-07T11:49:43;9.88;;;4.00;;
59880;SDS011;45751;51.380;10.326;2023-12-07T11:52:19;9.75;;;3.40;;
59880;SDS011;45751;51.380;10.326;2023-12-07T11:54:45;8.75;;;4.57;;
59880;SDS011;45751;51.380;10.326;2023-12-07T11:57:15;12.15;;;5.55;;
59880;SDS011;45751;51.380;10.326;2023-12-07T11:59:42;9.10;;;3.75;;
59880;SDS011;45751;51.380;10.326;2023-12-07T12:02:12;14.00;;;4.25;;
59880;SDS011;45751;51.380;10.326;2023-12-07T12:04:39;10.43;;;3.75;;
59880;SDS011;45751;51.380;10.326;2023-12-07T12:07:05;7.85;;;3.83;;
59880;SDS011;45751;51.380;10.326;2023-12-07T12:09:31;10.32;;;4.15;;
59880;SDS011;45751;51.380;10.326;2023-12-07T12:11:59;10.07;;;4.28;;
59880;SDS011;45751;51.380;10.326;2023-12-07T12:14:25;10.93;;;4.25;;
59880;SDS011;45751;51.380;10.326;2023-12-07T12:16:53;11.88;;;4.07;;
59880;SDS011;45751;51.380;10.326;2023-12-07T12:19:19;8.43;;;3.72;;
59880;SDS011;45751;51.380;10.326;2023-12-07T12:21:45;11.93;;;5.38;;
59880;SDS011;45751;51.380;10.326;2023-12-07T12:24:12;9.55;;;5.28;;
59880;SDS011;45751;51.380;10.326;2023-12-07T12:26:41;9.40;;;4.15;;
59880;SDS011;45751;51.380;10.326;2023-12-07T12:29:08;7.38;;;2.63;;
59880;SDS011;45751;51.380;10.326;2023-12-07T12:31:37;10.95;;;3.95;;
59880;SDS011;45751;51.380;10.326;2023-12-07T12:34:07;9.10;;;3.33;;
59880;SDS011;45751;51.380;10.326;2023-12-07T12:36:37;6.30;;;2.75;;
59880;SDS011;45751;51.380;10.326;2023-12-07T12:39:02;8.05;;;2.58;;
59880;SDS011;45751;51.380;10.326;2023-12-07T12:41:33;7.38;;;2.97;;
59880;SDS011;45751;51.380;10.326;2023-12-07T12:43:59;9.20;;;2.78;;
59880;SDS011;45751;51.380;10.326;2023-12-07T12:46:25;7.50;;;2.97;;
59880;SDS011;45751;51.380;10.326;2023-12-07T12:48:58;8.90;;;2.72;;
59880;SDS011;45751;51.380;10.326;2023-12-07T12:51:25;6.72;;;3.10;;
59880;SDS011;45751;51.380;10.326;2023-12-07T12:53:53;6.72;;;2.85;;
59880;SDS011;45751;51.380;10.326;2023-12-07T12:56:20;5.90;;;1.75;;
59880;SDS011;45751;51.380;10.326;2023-12-07T12:58:47;5.55;;;1.73;;
59880;SDS011;45751;51.380;10.326;2023-12-07T13:01:15;7.95;;;3.03;;
59880;SDS011;45751;51.380;10.326;2023-12-07T13:03:43;6.20;;;2.67;;
59880;SDS011;45751;51.380;10.326;2023-12-07T13:06:11;9.15;;;3.05;;
59880;SDS011;45751;51.380;10.326;2023-12-07T13:08:37;9.40;;;3.72;;
59880;SDS011;45751;51.380;10.326;2023-12-07T13:11:03;10.38;;;3.80;;
59880;SDS011;45751;51.380;10.326;2023-12-07T13:13:29;10.75;;;3.80;;
59880;SDS011;45751;51.380;10.326;2023-12-07T13:15:55;12.10;;;4.57;;
59880;SDS011;45751;51.380;10.326;2023-12-07T13:18:20;9.95;;;3.83;;
59880;SDS011;45751;51.380;10.326;2023-12-07T13:20:46;17.50;;;5.10;;
59880;SDS011;45751;51.380;10.326;2023-12-07T13:23:12;11.00;;;4.93;;
59880;SDS011;45751;51.380;10.326;2023-12-07T13:25:38;11.52;;;4.45;;
59880;SDS011;45751;51.380;10.326;2023-12-07T13:28:03;11.13;;;5.47;;
59880;SDS011;45751;51.380;10.326;2023-12-07T13:30:29;13.93;;;5.43;;
59880;SDS011;45751;51.380;10.326;2023-12-07T13:32:58;10.75;;;4.75;;
59880;SDS011;45751;51.380;10.326;2023-12-07T13:35:24;11.40;;;4.07;;
59880;SDS011;45751;51.380;10.326;2023-12-07T13:37:50;13.60;;;5.72;;
59880;SDS011;45751;51.380;10.326;2023-12-07T13:40:16;11.60;;;4.85;;
59880;SDS011;45751;51.380;10.326;2023-12-07T13:42:42;8.80;;;3.78;;
59880;SDS011;45751;51.380;10.326;2023-12-07T13:45:08;12.07;;;5.43;;
59880;SDS011;45751;51.380;10.326;2023-12-07T13:47:34;12.65;;;5.60;;
59880;SDS011;45751;51.380;10.326;2023-12-07T13:50:02;11.82;;;4.70;;
59880;SDS011;45751;51.380;10.326;2023-12-07T13:52:29;8.40;;;4.18;;
59880;SDS011;45751;51.380;10.326;2023-12-07T13:54:55;12.38;;;5.07;;
59880;SDS011;45751;51.380;10.326;2023-12-07T13:57:22;12.68;;;5.68;;
59880;SDS011;45751;51.380;10.326;2023-12-07T13:59:51;8.73;;;3.67;;
59880;SDS011;45751;51.380;10.326;2023-12-07T14:02:17;14.43;;;5.43;;
59880;SDS011;45751;51.380;10.326;2023-12-07T14:04:44;14.32;;;6.35;;
59880;SDS011;45751;51.380;10.326;2023-12-07T14:07:11;12.07;;;5.32;;
59880;SDS011;45751;51.380;10.326;2023-12-07T14:09:40;10.38;;;4.75;;
59880;SDS011;45751;51.380;10.326;2023-12-07T14:12:08;14.25;;;4.32;;
59880;SDS011;45751;51.380;10.326;2023-12-07T14:14:36;12.65;;;5.15;;
59880;SDS011;45751;51.380;10.326;2023-12-07T14:17:01;11.77;;;4.95;;
59880;SDS011;45751;51.380;10.326;2023-12-07T14:19:28;12.60;;;5.28;;
59880;SDS011;45751;51.380;10.326;2023-12-07T14:21:54;16.15;;;7.10;;
59880;SDS011;45751;51.380;10.326;2023-12-07T14:24:21;14.48;;;7.65;;
59880;SDS011;45751;51.380;10.326;2023-12-07T14:26:48;12.23;;;6.50;;
59880;SDS011;45751;51.380;10.326;2023-12-07T14:29:14;13.10;;;5.50;;